sensor_id;sensor_type;location;lat;lon;timestamp;P1;durP1;ratioP1;P2;durP2;ratioP2
79009;SDS011;73031;44.726;37.760;2024-02-26T00:00:53;11.75;;;4.05;;
79009;SDS011;73031;44.726;37.760;2024-02-26T00:01:54;11.38;;;4.28;;
79009;SDS011;73031;44.726;37.760;2024-02-26T00:02:55;9.55;;;3.90;;
79009;SDS011;73031;44.726;37.760;2024-02-26T00:03:56;10.57;;;4.05;;
79009;SDS011;73031;44.726;37.760;2024-02-26T00:05:00;17.13;;;4.55;;
79009;SDS011;73031;44.726;37.760;2024-02-26T00:06:01;15.93;;;4.90;;
79009;SDS011;73031;44.726;37.760;2024-02-26T00:07:03;10.73;;;3.97;;
79009;SDS011;73031;44.726;37.760;2024-02-26T00:08:04;11.65;;;4.18;;
79009;SDS011;73031;44.726;37.760;2024-02-26T00:09:05;14.60;;;4.93;;
79009;SDS011;73031;44.726;37.760;2024-02-26T00:10:07;10.45;;;4.53;;
79009;SDS011;73031;44.726;37.760;2024-02-26T00:11:09;12.10;;;4.90;;
79009;SDS011;73031;44.726;37.760;2024-02-26T00:12:10;18.15;;;5.13;;
79009;SDS011;73031;44.726;37.760;2024-02-26T00:13:11;17.65;;;5.03;;
79009;SDS011;73031;44.726;37.760;2024-02-26T00:14:12;10.27;;;3.95;;
79009;SDS011;73031;44.726;37.760;2024-02-26T00:15:14;14.27;;;4.70;;
79009;SDS011;73031;44.726;37.760;2024-02-26T00:16:15;15.35;;;5.10;;
79009;SDS011;73031;44.726;37.760;2024-02-26T00:17:16;14.60;;;4.60;;
79009;SDS011;73031;44.726;37.760;2024-02-26T00:18:17;11.90;;;4.80;;
79009;SDS011;73031;44.726;37.760;2024-02-26T00:19:18;16.23;;;4.97;;
79009;SDS011;73031;44.726;37.760;2024-02-26T00:20:19;15.50;;;4.72;;
79009;SDS011;73031;44.726;37.760;2024-02-26T00:21:20;15.55;;;4.78;;
79009;SDS011;73031;44.726;37.760;2024-02-26T00:22:21;17.33;;;4.72;;
79009;SDS011;73031;44.726;37.760;2024-02-26T00:23:23;11.15;;;4.32;;
79009;SDS011;73031;44.726;37.760;2024-02-26T00:24:24;12.55;;;4.53;;
79009;SDS011;73031;44.726;37.760;2024-02-26T00:25:26;14.00;;;4.70;;
79009;SDS011;73031;44.726;37.760;2024-02-26T00:26:27;12.52;;;4.68;;
79009;SDS011;73031;44.726;37.760;2024-02-26T00:27:28;10.93;;;4.65;;
79009;SDS011;73031;44.726;37.760;2024-02-26T00:28:29;12.93;;;4.88;;
79009;SDS011;73031;44.726;37.760;2024-02-26T00:29:30;16.27;;;6.05;;
79009;SDS011;73031;44.726;37.760;2024-02-26T00:30:32;14.68;;;4.90;;
79009;SDS011;73031;44.726;37.760;2024-02-26T00:31:33;14.45;;;5.10;;
79009;SDS011;73031;44.726;37.760;2024-02-26T00:32:34;14.35;;;5.07;;
79009;SDS011;73031;44.726;37.760;2024-02-26T00:33:36;12.40;;;4.75;;
79009;SDS011;73031;44.726;37.760;2024-02-26T00:34:37;20.05;;;5.03;;
79009;SDS011;73031;44.726;37.760;2024-02-26T00:35:38;9.25;;;4.38;;
79009;SDS011;73031;44.726;37.760;2024-02-26T00:36:39;17.33;;;5.10;;
79009;SDS011;73031;44.726;37.760;2024-02-26T00:37:40;12.88;;;5.07;;
79009;SDS011;73031;44.726;37.760;2024-02-26T00:38:43;12.73;;;4.85;;
79009;SDS011;73031;44.726;37.760;2024-02-26T00:39:46;15.32;;;4.85;;
79009;SDS011;73031;44.726;37.760;2024-02-26T00:40:47;14.15;;;4.90;;
79009;SDS011;73031;44.726;37.760;2024-02-26T00:41:49;12.73;;;5.43;;
79009;SDS011;73031;44.726;37.760;2024-02-26T00:42:52;12.93;;;4.88;;
79009;SDS011;73031;44.726;37.760;2024-02-26T00:43:53;14.55;;;4.47;;
79009;SDS011;73031;44.726;37.760;2024-02-26T00:44:54;11.73;;;4.75;;
79009;SDS011;73031;44.726;37.760;2024-02-26T00:45:55;17.13;;;5.47;;
79009;SDS011;73031;44.726;37.760;2024-02-26T00:46:56;14.52;;;4.68;;
79009;SDS011;73031;44.726;37.760;2024-02-26T00:47:57;15.10;;;4.60;;
79009;SDS011;73031;44.726;37.760;2024-02-26T00:48:59;13.00;;;4.45;;
79009;SDS011;73031;44.726;37.760;2024-02-26T00:50:01;15.00;;;5.20;;
79009;SDS011;73031;44.726;37.760;2024-02-26T00:51:03;21.27;;;5.38;;
79009;SDS011;73031;44.726;37.760;2024-02-26T00:52:08;17.25;;;5.47;;
79009;SDS011;73031;44.726;37.760;2024-02-26T00:53:09;14.10;;;4.80;;
79009;SDS011;73031;44.726;37.760;2024-02-26T00:54:10;17.30;;;5.18;;
79009;SDS011;73031;44.726;37.760;2024-02-26T00:55:11;18.20;;;4.93;;
79009;SDS011;73031;44.726;37.760;2024-02-26T00:56:12;11.68;;;4.55;;
79009;SDS011;73031;44.726;37.760;2024-02-26T00:57:13;19.30;;;4.60;;
79009;SDS011;73031;44.726;37.760;2024-02-26T00:58:14;14.25;;;4.40;;
79009;SDS011;73031;44.726;37.760;2024-02-26T00:59:15;14.68;;;5.13;;
79009;SDS011;73031;44.726;37.760;2024-02-26T01:00:16;16.73;;;5.53;;
79009;SDS011;73031;44.726;37.760;2024-02-26T01:01:17;12.05;;;4.40;;
79009;SDS011;73031;44.726;37.760;2024-02-26T01:02:19;14.43;;;4.95;;
79009;SDS011;73031;44.726;37.760;2024-02-26T01:03:20;11.23;;;4.28;;
79009;SDS011;73031;44.726;37.760;2024-02-26T01:04:21;10.43;;;4.40;;
79009;SDS011;73031;44.726;37.760;2024-02-26T01:05:22;13.95;;;4.63;;
79009;SDS011;73031;44.726;37.760;2024-02-26T01:06:23;10.98;;;4.18;;
79009;SDS011;73031;44.726;37.760;2024-02-26T01:07:24;10.18;;;4.25;;
79009;SDS011;73031;44.726;37.760;2024-02-26T01:08:25;13.48;;;4.15;;
79009;SDS011;73031;44.726;37.760;2024-02-26T01:09:26;12.75;;;4.40;;
79009;SDS011;73031;44.726;37.760;2024-02-26T01:10:27;11.93;;;4.78;;
79009;SDS011;73031;44.726;37.760;2024-02-26T01:11:28;12.10;;;3.80;;
79009;SDS011;73031;44.726;37.760;2024-02-26T01:12:29;15.90;;;4.53;;
79009;SDS011;73031;44.726;37.760;2024-02-26T01:13:30;17.02;;;4.57;;
79009;SDS011;73031;44.726;37.760;2024-02-26T01:14:31;10.57;;;3.80;;
79009;SDS011;73031;44.726;37.760;2024-02-26T01:15:32;14.50;;;4.30;;
79009;SDS011;73031;44.726;37.760;2024-02-26T01:16:34;9.00;;;4.30;;
79009;SDS011;73031;44.726;37.760;2024-02-26T01:17:35;13.43;;;4.25;;
79009;SDS011;73031;44.726;37.760;2024-02-26T01:18:36;13.70;;;4.30;;
79009;SDS011;73031;44.726;37.760;2024-02-26T01:19:37;13.50;;;4.72;;
79009;SDS011;73031;44.726;37.760;2024-02-26T01:20:38;14.30;;;5.05;;
79009;SDS011;73031;44.726;37.760;2024-02-26T01:21:39;15.27;;;4.63;;
79009;SDS011;73031;44.726;37.760;2024-02-26T01:22:40;15.90;;;4.82;;
79009;SDS011;73031;44.726;37.760;2024-02-26T01:23:41;15.60;;;4.40;;
79009;SDS011;73031;44.726;37.760;2024-02-26T01:24:43;11.90;;;4.05;;
79009;SDS011;73031;44.726;37.760;2024-02-26T01:25:44;18.90;;;4.80;;
79009;SDS011;73031;44.726;37.760;2024-02-26T01:26:46;13.45;;;4.40;;
79009;SDS011;73031;44.726;37.760;2024-02-26T01:27:47;12.90;;;4.13;;
79009;SDS011;73031;44.726;37.760;2024-02-26T01:28:48;12.40;;;4.05;;
79009;SDS011;73031;44.726;37.760;2024-02-26T01:29:49;16.55;;;5.07;;
79009;SDS011;73031;44.726;37.760;2024-02-26T01:30:50;13.20;;;4.93;;
79009;SDS011;73031;44.726;37.760;2024-02-26T01:31:51;15.95;;;4.47;;
79009;SDS011;73031;44.726;37.760;2024-02-26T01:32:52;12.15;;;4.43;;
79009;SDS011;73031;44.726;37.760;2024-02-26T01:33:53;15.80;;;4.03;;
79009;SDS011;73031;44.726;37.760;2024-02-26T01:34:54;16.08;;;4.70;;
79009;SDS011;73031;44.726;37.760;2024-02-26T01:35:55;15.38;;;4.57;;
79009;SDS011;73031;44.726;37.760;2024-02-26T01:36:56;13.70;;;4.63;;
79009;SDS011;73031;44.726;37.760;2024-02-26T01:37:58;19.88;;;4.88;;
79009;SDS011;73031;44.726;37.760;2024-02-26T01:38:59;18.70;;;4.45;;
79009;SDS011;73031;44.726;37.760;2024-02-26T01:40:00;12.45;;;4.53;;
79009;SDS011;73031;44.726;37.760;2024-02-26T01:41:04;14.38;;;4.57;;
79009;SDS011;73031;44.726;37.760;2024-02-26T01:42:05;11.15;;;3.50;;
79009;SDS011;73031;44.726;37.760;2024-02-26T01:43:06;9.05;;;3.92;;
79009;SDS011;73031;44.726;37.760;2024-02-26T01:44:07;13.65;;;4.50;;
79009;SDS011;73031;44.726;37.760;2024-02-26T01:45:09;16.75;;;4.88;;
79009;SDS011;73031;44.726;37.760;2024-02-26T01:46:25;13.52;;;4.65;;
79009;SDS011;73031;44.726;37.760;2024-02-26T01:47:26;18.60;;;5.05;;
79009;SDS011;73031;44.726;37.760;2024-02-26T01:48:28;15.55;;;4.50;;
79009;SDS011;73031;44.726;37.760;2024-02-26T01:49:29;13.07;;;4.50;;
79009;SDS011;73031;44.726;37.760;2024-02-26T01:50:30;14.63;;;4.18;;
79009;SDS011;73031;44.726;37.760;2024-02-26T01:51:32;22.63;;;4.32;;
79009;SDS011;73031;44.726;37.760;2024-02-26T01:52:34;16.98;;;4.07;;
79009;SDS011;73031;44.726;37.760;2024-02-26T01:53:35;27.40;;;6.60;;
79009;SDS011;73031;44.726;37.760;2024-02-26T01:54:36;18.73;;;4.80;;
79009;SDS011;73031;44.726;37.760;2024-02-26T01:55:38;16.05;;;4.10;;
79009;SDS011;73031;44.726;37.760;2024-02-26T01:56:40;16.05;;;4.00;;
79009;SDS011;73031;44.726;37.760;2024-02-26T01:57:42;15.90;;;4.68;;
79009;SDS011;73031;44.726;37.760;2024-02-26T01:58:44;21.98;;;4.72;;
79009;SDS011;73031;44.726;37.760;2024-02-26T01:59:46;17.55;;;4.40;;
79009;SDS011;73031;44.726;37.760;2024-02-26T02:00:47;18.52;;;4.45;;
79009;SDS011;73031;44.726;37.760;2024-02-26T02:01:49;15.57;;;4.43;;
79009;SDS011;73031;44.726;37.760;2024-02-26T02:02:55;20.52;;;5.45;;
79009;SDS011;73031;44.726;37.760;2024-02-26T02:03:57;20.83;;;4.35;;
79009;SDS011;73031;44.726;37.760;2024-02-26T02:04:59;14.80;;;4.20;;
79009;SDS011;73031;44.726;37.760;2024-02-26T02:06:01;14.55;;;4.05;;
79009;SDS011;73031;44.726;37.760;2024-02-26T02:07:03;16.40;;;4.47;;
79009;SDS011;73031;44.726;37.760;2024-02-26T02:08:05;15.27;;;4.32;;
79009;SDS011;73031;44.726;37.760;2024-02-26T02:09:07;13.70;;;4.15;;
79009;SDS011;73031;44.726;37.760;2024-02-26T02:10:09;13.68;;;4.32;;
79009;SDS011;73031;44.726;37.760;2024-02-26T02:11:11;10.57;;;3.78;;
79009;SDS011;73031;44.726;37.760;2024-02-26T02:12:12;12.15;;;4.53;;
79009;SDS011;73031;44.726;37.760;2024-02-26T02:13:13;11.18;;;3.97;;
79009;SDS011;73031;44.726;37.760;2024-02-26T02:14:14;13.85;;;4.03;;
79009;SDS011;73031;44.726;37.760;2024-02-26T02:15:15;14.32;;;4.28;;
79009;SDS011;73031;44.726;37.760;2024-02-26T02:16:16;13.93;;;4.30;;
79009;SDS011;73031;44.726;37.760;2024-02-26T02:17:17;18.40;;;4.18;;
79009;SDS011;73031;44.726;37.760;2024-02-26T02:18:19;15.82;;;4.57;;
79009;SDS011;73031;44.726;37.760;2024-02-26T02:19:21;17.10;;;5.00;;
79009;SDS011;73031;44.726;37.760;2024-02-26T02:20:26;17.17;;;4.30;;
79009;SDS011;73031;44.726;37.760;2024-02-26T02:21:33;17.13;;;4.63;;
79009;SDS011;73031;44.726;37.760;2024-02-26T02:22:34;15.85;;;4.38;;
79009;SDS011;73031;44.726;37.760;2024-02-26T02:23:35;20.25;;;4.32;;
79009;SDS011;73031;44.726;37.760;2024-02-26T02:24:36;15.88;;;4.25;;
79009;SDS011;73031;44.726;37.760;2024-02-26T02:25:37;15.48;;;4.07;;
79009;SDS011;73031;44.726;37.760;2024-02-26T02:26:38;17.73;;;3.90;;
79009;SDS011;73031;44.726;37.760;2024-02-26T02:27:40;14.10;;;4.18;;
79009;SDS011;73031;44.726;37.760;2024-02-26T02:28:43;15.18;;;4.25;;
79009;SDS011;73031;44.726;37.760;2024-02-26T02:29:45;15.90;;;4.22;;
79009;SDS011;73031;44.726;37.760;2024-02-26T02:30:47;15.90;;;3.88;;
79009;SDS011;73031;44.726;37.760;2024-02-26T02:31:49;18.20;;;4.40;;
79009;SDS011;73031;44.726;37.760;2024-02-26T02:32:50;14.85;;;4.93;;
79009;SDS011;73031;44.726;37.760;2024-02-26T02:33:52;14.73;;;3.92;;
79009;SDS011;73031;44.726;37.760;2024-02-26T02:34:53;18.88;;;4.85;;
79009;SDS011;73031;44.726;37.760;2024-02-26T02:35:55;15.18;;;4.50;;
79009;SDS011;73031;44.726;37.760;2024-02-26T02:36:56;12.50;;;4.20;;
79009;SDS011;73031;44.726;37.760;2024-02-26T02:37:57;15.68;;;5.07;;
79009;SDS011;73031;44.726;37.760;2024-02-26T02:38:59;16.65;;;4.43;;
79009;SDS011;73031;44.726;37.760;2024-02-26T02:40:00;11.38;;;4.05;;
79009;SDS011;73031;44.726;37.760;2024-02-26T02:41:01;10.65;;;4.03;;
79009;SDS011;73031;44.726;37.760;2024-02-26T02:42:02;12.93;;;3.97;;
79009;SDS011;73031;44.726;37.760;2024-02-26T02:43:03;15.95;;;4.35;;
79009;SDS011;73031;44.726;37.760;2024-02-26T02:44:05;11.70;;;3.90;;
79009;SDS011;73031;44.726;37.760;2024-02-26T02:45:06;14.57;;;4.03;;
79009;SDS011;73031;44.726;37.760;2024-02-26T02:46:07;10.23;;;3.95;;
79009;SDS011;73031;44.726;37.760;2024-02-26T02:47:08;10.20;;;3.50;;
79009;SDS011;73031;44.726;37.760;2024-02-26T02:48:13;14.05;;;3.72;;
79009;SDS011;73031;44.726;37.760;2024-02-26T02:49:14;17.15;;;4.70;;
79009;SDS011;73031;44.726;37.760;2024-02-26T02:50:15;15.18;;;3.78;;
79009;SDS011;73031;44.726;37.760;2024-02-26T02:51:16;13.13;;;3.65;;
79009;SDS011;73031;44.726;37.760;2024-02-26T02:52:17;13.55;;;3.50;;
79009;SDS011;73031;44.726;37.760;2024-02-26T02:53:18;11.27;;;3.47;;
79009;SDS011;73031;44.726;37.760;2024-02-26T02:54:20;11.38;;;3.70;;
79009;SDS011;73031;44.726;37.760;2024-02-26T02:55:21;10.20;;;3.88;;
79009;SDS011;73031;44.726;37.760;2024-02-26T02:56:22;23.00;;;4.70;;
79009;SDS011;73031;44.726;37.760;2024-02-26T02:57:23;24.42;;;5.22;;
79009;SDS011;73031;44.726;37.760;2024-02-26T02:58:24;17.35;;;4.47;;
79009;SDS011;73031;44.726;37.760;2024-02-26T02:59:25;18.10;;;4.53;;
79009;SDS011;73031;44.726;37.760;2024-02-26T03:00:26;16.67;;;4.80;;
79009;SDS011;73031;44.726;37.760;2024-02-26T03:01:27;18.42;;;4.47;;
79009;SDS011;73031;44.726;37.760;2024-02-26T03:02:28;20.13;;;4.63;;
79009;SDS011;73031;44.726;37.760;2024-02-26T03:03:30;13.90;;;4.45;;
79009;SDS011;73031;44.726;37.760;2024-02-26T03:04:31;17.92;;;4.57;;
79009;SDS011;73031;44.726;37.760;2024-02-26T03:05:32;20.63;;;4.43;;
79009;SDS011;73031;44.726;37.760;2024-02-26T03:06:33;18.77;;;4.68;;
79009;SDS011;73031;44.726;37.760;2024-02-26T03:07:34;22.77;;;4.80;;
79009;SDS011;73031;44.726;37.760;2024-02-26T03:08:35;27.40;;;5.00;;
79009;SDS011;73031;44.726;37.760;2024-02-26T03:09:42;14.40;;;4.53;;
79009;SDS011;73031;44.726;37.760;2024-02-26T03:10:43;28.42;;;5.18;;
79009;SDS011;73031;44.726;37.760;2024-02-26T03:11:44;22.23;;;5.22;;
79009;SDS011;73031;44.726;37.760;2024-02-26T03:12:45;23.45;;;6.15;;
79009;SDS011;73031;44.726;37.760;2024-02-26T03:13:47;26.58;;;5.50;;
79009;SDS011;73031;44.726;37.760;2024-02-26T03:14:48;23.63;;;5.50;;
79009;SDS011;73031;44.726;37.760;2024-02-26T03:15:49;21.13;;;5.72;;
79009;SDS011;73031;44.726;37.760;2024-02-26T03:16:52;27.98;;;5.85;;
79009;SDS011;73031;44.726;37.760;2024-02-26T03:17:55;32.30;;;5.82;;
79009;SDS011;73031;44.726;37.760;2024-02-26T03:18:56;20.77;;;4.65;;
79009;SDS011;73031;44.726;37.760;2024-02-26T03:19:57;13.05;;;4.38;;
79009;SDS011;73031;44.726;37.760;2024-02-26T03:20:58;19.30;;;5.05;;
79009;SDS011;73031;44.726;37.760;2024-02-26T03:21:59;11.40;;;3.80;;
79009;SDS011;73031;44.726;37.760;2024-02-26T03:23:00;8.82;;;3.70;;
79009;SDS011;73031;44.726;37.760;2024-02-26T03:24:01;13.88;;;3.80;;
79009;SDS011;73031;44.726;37.760;2024-02-26T03:25:03;12.07;;;3.85;;
79009;SDS011;73031;44.726;37.760;2024-02-26T03:26:04;12.25;;;3.70;;
79009;SDS011;73031;44.726;37.760;2024-02-26T03:27:05;8.38;;;3.42;;
79009;SDS011;73031;44.726;37.760;2024-02-26T03:28:09;9.63;;;4.07;;
79009;SDS011;73031;44.726;37.760;2024-02-26T03:29:10;19.80;;;4.20;;
79009;SDS011;73031;44.726;37.760;2024-02-26T03:30:11;11.90;;;4.25;;
79009;SDS011;73031;44.726;37.760;2024-02-26T03:31:13;13.63;;;4.20;;
79009;SDS011;73031;44.726;37.760;2024-02-26T03:32:14;16.35;;;4.63;;
79009;SDS011;73031;44.726;37.760;2024-02-26T03:33:15;22.92;;;5.15;;
79009;SDS011;73031;44.726;37.760;2024-02-26T03:34:16;19.63;;;5.40;;
79009;SDS011;73031;44.726;37.760;2024-02-26T03:35:19;23.63;;;6.50;;
79009;SDS011;73031;44.726;37.760;2024-02-26T03:36:20;28.65;;;5.50;;
79009;SDS011;73031;44.726;37.760;2024-02-26T03:37:22;26.38;;;6.53;;
79009;SDS011;73031;44.726;37.760;2024-02-26T03:38:23;19.13;;;5.68;;
79009;SDS011;73031;44.726;37.760;2024-02-26T03:39:24;20.58;;;5.30;;
79009;SDS011;73031;44.726;37.760;2024-02-26T03:40:25;27.75;;;4.93;;
79009;SDS011;73031;44.726;37.760;2024-02-26T03:41:26;20.52;;;5.50;;
79009;SDS011;73031;44.726;37.760;2024-02-26T03:42:27;21.60;;;6.32;;
79009;SDS011;73031;44.726;37.760;2024-02-26T03:43:28;24.10;;;5.45;;
79009;SDS011;73031;44.726;37.760;2024-02-26T03:44:30;24.23;;;7.68;;
79009;SDS011;73031;44.726;37.760;2024-02-26T03:45:31;28.50;;;9.10;;
79009;SDS011;73031;44.726;37.760;2024-02-26T03:46:32;26.27;;;8.18;;
79009;SDS011;73031;44.726;37.760;2024-02-26T03:47:33;22.63;;;8.32;;
79009;SDS011;73031;44.726;37.760;2024-02-26T03:48:34;30.63;;;7.15;;
79009;SDS011;73031;44.726;37.760;2024-02-26T03:49:35;30.30;;;8.93;;
79009;SDS011;73031;44.726;37.760;2024-02-26T03:50:36;36.25;;;10.00;;
79009;SDS011;73031;44.726;37.760;2024-02-26T03:51:38;36.53;;;7.45;;
79009;SDS011;73031;44.726;37.760;2024-02-26T03:52:39;31.42;;;8.32;;
79009;SDS011;73031;44.726;37.760;2024-02-26T03:53:40;40.70;;;10.52;;
79009;SDS011;73031;44.726;37.760;2024-02-26T03:54:41;33.78;;;8.20;;
79009;SDS011;73031;44.726;37.760;2024-02-26T03:55:42;32.88;;;9.77;;
79009;SDS011;73031;44.726;37.760;2024-02-26T03:56:43;37.10;;;12.93;;
79009;SDS011;73031;44.726;37.760;2024-02-26T03:57:44;41.92;;;11.13;;
79009;SDS011;73031;44.726;37.760;2024-02-26T03:58:45;35.00;;;10.00;;
79009;SDS011;73031;44.726;37.760;2024-02-26T03:59:46;42.28;;;8.35;;
79009;SDS011;73031;44.726;37.760;2024-02-26T04:00:47;34.75;;;8.00;;
79009;SDS011;73031;44.726;37.760;2024-02-26T04:01:48;34.00;;;7.07;;
79009;SDS011;73031;44.726;37.760;2024-02-26T04:02:50;29.60;;;6.80;;
79009;SDS011;73031;44.726;37.760;2024-02-26T04:03:51;23.90;;;5.82;;
79009;SDS011;73031;44.726;37.760;2024-02-26T04:04:53;29.27;;;6.45;;
79009;SDS011;73031;44.726;37.760;2024-02-26T04:05:54;18.20;;;5.82;;
79009;SDS011;73031;44.726;37.760;2024-02-26T04:06:55;23.30;;;5.53;;
79009;SDS011;73031;44.726;37.760;2024-02-26T04:07:56;19.02;;;5.32;;
79009;SDS011;73031;44.726;37.760;2024-02-26T04:08:57;20.13;;;5.72;;
79009;SDS011;73031;44.726;37.760;2024-02-26T04:09:58;22.38;;;5.72;;
79009;SDS011;73031;44.726;37.760;2024-02-26T04:10:59;24.40;;;5.47;;
79009;SDS011;73031;44.726;37.760;2024-02-26T04:12:01;19.58;;;5.40;;
79009;SDS011;73031;44.726;37.760;2024-02-26T04:13:02;23.67;;;5.55;;
79009;SDS011;73031;44.726;37.760;2024-02-26T04:14:04;22.63;;;5.35;;
79009;SDS011;73031;44.726;37.760;2024-02-26T04:15:07;23.55;;;5.60;;
79009;SDS011;73031;44.726;37.760;2024-02-26T04:16:09;20.13;;;5.28;;
79009;SDS011;73031;44.726;37.760;2024-02-26T04:17:10;32.45;;;13.40;;
79009;SDS011;73031;44.726;37.760;2024-02-26T04:18:11;29.25;;;7.93;;
79009;SDS011;73031;44.726;37.760;2024-02-26T04:19:12;30.30;;;9.15;;
79009;SDS011;73031;44.726;37.760;2024-02-26T04:20:14;55.50;;;21.98;;
79009;SDS011;73031;44.726;37.760;2024-02-26T04:21:19;17.00;;;5.93;;
79009;SDS011;73031;44.726;37.760;2024-02-26T04:22:21;22.15;;;5.65;;
79009;SDS011;73031;44.726;37.760;2024-02-26T04:23:22;34.35;;;8.85;;
79009;SDS011;73031;44.726;37.760;2024-02-26T04:24:23;22.20;;;7.55;;
79009;SDS011;73031;44.726;37.760;2024-02-26T04:25:24;48.55;;;19.27;;
79009;SDS011;73031;44.726;37.760;2024-02-26T04:26:25;22.48;;;8.38;;
79009;SDS011;73031;44.726;37.760;2024-02-26T04:27:26;29.73;;;9.38;;
79009;SDS011;73031;44.726;37.760;2024-02-26T04:28:28;27.33;;;8.25;;
79009;SDS011;73031;44.726;37.760;2024-02-26T04:29:30;20.40;;;6.18;;
79009;SDS011;73031;44.726;37.760;2024-02-26T04:30:31;17.30;;;5.35;;
79009;SDS011;73031;44.726;37.760;2024-02-26T04:31:32;17.65;;;5.57;;
79009;SDS011;73031;44.726;37.760;2024-02-26T04:32:33;20.58;;;5.57;;
79009;SDS011;73031;44.726;37.760;2024-02-26T04:33:34;24.63;;;6.85;;
79009;SDS011;73031;44.726;37.760;2024-02-26T04:34:36;33.28;;;6.47;;
79009;SDS011;73031;44.726;37.760;2024-02-26T04:35:37;33.55;;;7.35;;
79009;SDS011;73031;44.726;37.760;2024-02-26T04:36:38;34.13;;;9.35;;
79009;SDS011;73031;44.726;37.760;2024-02-26T04:37:39;32.78;;;7.40;;
79009;SDS011;73031;44.726;37.760;2024-02-26T04:38:40;23.08;;;6.13;;
79009;SDS011;73031;44.726;37.760;2024-02-26T04:39:41;28.60;;;6.97;;
79009;SDS011;73031;44.726;37.760;2024-02-26T04:40:42;24.40;;;8.93;;
79009;SDS011;73031;44.726;37.760;2024-02-26T04:41:43;38.25;;;11.75;;
79009;SDS011;73031;44.726;37.760;2024-02-26T04:42:44;76.15;;;30.95;;
79009;SDS011;73031;44.726;37.760;2024-02-26T04:43:45;61.50;;;22.55;;
79009;SDS011;73031;44.726;37.760;2024-02-26T04:44:46;49.78;;;18.73;;
79009;SDS011;73031;44.726;37.760;2024-02-26T04:45:47;28.02;;;7.80;;
79009;SDS011;73031;44.726;37.760;2024-02-26T04:46:48;26.08;;;8.20;;
79009;SDS011;73031;44.726;37.760;2024-02-26T04:47:49;24.80;;;7.90;;
79009;SDS011;73031;44.726;37.760;2024-02-26T04:48:50;24.42;;;6.88;;
79009;SDS011;73031;44.726;37.760;2024-02-26T04:49:52;21.02;;;6.35;;
79009;SDS011;73031;44.726;37.760;2024-02-26T04:50:53;21.63;;;6.78;;
79009;SDS011;73031;44.726;37.760;2024-02-26T04:51:54;19.02;;;6.45;;
79009;SDS011;73031;44.726;37.760;2024-02-26T04:52:55;16.00;;;6.15;;
79009;SDS011;73031;44.726;37.760;2024-02-26T04:53:56;22.30;;;6.00;;
79009;SDS011;73031;44.726;37.760;2024-02-26T04:54:57;17.73;;;7.20;;
79009;SDS011;73031;44.726;37.760;2024-02-26T04:56:00;36.67;;;7.90;;
79009;SDS011;73031;44.726;37.760;2024-02-26T04:57:01;33.10;;;8.15;;
79009;SDS011;73031;44.726;37.760;2024-02-26T04:58:03;28.50;;;7.55;;
79009;SDS011;73031;44.726;37.760;2024-02-26T04:59:04;19.38;;;6.43;;
79009;SDS011;73031;44.726;37.760;2024-02-26T05:00:05;24.35;;;7.30;;
79009;SDS011;73031;44.726;37.760;2024-02-26T05:01:06;22.52;;;6.43;;
79009;SDS011;73031;44.726;37.760;2024-02-26T05:02:10;18.15;;;6.22;;
79009;SDS011;73031;44.726;37.760;2024-02-26T05:03:11;19.58;;;6.60;;
79009;SDS011;73031;44.726;37.760;2024-02-26T05:04:13;20.75;;;5.53;;
79009;SDS011;73031;44.726;37.760;2024-02-26T05:05:14;15.65;;;5.25;;
79009;SDS011;73031;44.726;37.760;2024-02-26T05:06:15;10.32;;;4.85;;
79009;SDS011;73031;44.726;37.760;2024-02-26T05:07:17;13.32;;;5.07;;
79009;SDS011;73031;44.726;37.760;2024-02-26T05:08:18;17.65;;;5.00;;
79009;SDS011;73031;44.726;37.760;2024-02-26T05:09:19;21.17;;;4.88;;
79009;SDS011;73031;44.726;37.760;2024-02-26T05:10:20;12.88;;;4.90;;
79009;SDS011;73031;44.726;37.760;2024-02-26T05:11:22;11.63;;;4.72;;
79009;SDS011;73031;44.726;37.760;2024-02-26T05:12:23;13.35;;;4.60;;
79009;SDS011;73031;44.726;37.760;2024-02-26T05:13:24;14.90;;;4.78;;
79009;SDS011;73031;44.726;37.760;2024-02-26T05:14:25;15.48;;;4.90;;
79009;SDS011;73031;44.726;37.760;2024-02-26T05:15:26;15.13;;;5.30;;
79009;SDS011;73031;44.726;37.760;2024-02-26T05:16:27;16.00;;;5.15;;
79009;SDS011;73031;44.726;37.760;2024-02-26T05:17:30;17.02;;;4.88;;
79009;SDS011;73031;44.726;37.760;2024-02-26T05:18:31;30.75;;;5.97;;
79009;SDS011;73031;44.726;37.760;2024-02-26T05:19:32;28.48;;;6.60;;
79009;SDS011;73031;44.726;37.760;2024-02-26T05:20:33;25.40;;;7.43;;
79009;SDS011;73031;44.726;37.760;2024-02-26T05:21:38;33.55;;;12.38;;
79009;SDS011;73031;44.726;37.760;2024-02-26T05:22:40;31.33;;;14.15;;
79009;SDS011;73031;44.726;37.760;2024-02-26T05:23:43;33.78;;;13.45;;
79009;SDS011;73031;44.726;37.760;2024-02-26T05:24:44;28.75;;;10.73;;
79009;SDS011;73031;44.726;37.760;2024-02-26T05:25:45;21.80;;;6.22;;
79009;SDS011;73031;44.726;37.760;2024-02-26T05:26:48;23.55;;;7.22;;
79009;SDS011;73031;44.726;37.760;2024-02-26T05:27:49;30.73;;;6.88;;
79009;SDS011;73031;44.726;37.760;2024-02-26T05:28:50;27.38;;;7.65;;
79009;SDS011;73031;44.726;37.760;2024-02-26T05:29:51;17.40;;;5.97;;
79009;SDS011;73031;44.726;37.760;2024-02-26T05:30:54;25.13;;;6.75;;
79009;SDS011;73031;44.726;37.760;2024-02-26T05:31:55;29.58;;;6.80;;
79009;SDS011;73031;44.726;37.760;2024-02-26T05:32:56;23.85;;;6.10;;
79009;SDS011;73031;44.726;37.760;2024-02-26T05:33:57;22.15;;;5.28;;
79009;SDS011;73031;44.726;37.760;2024-02-26T05:34:58;25.20;;;6.22;;
79009;SDS011;73031;44.726;37.760;2024-02-26T05:36:01;27.15;;;7.22;;
79009;SDS011;73031;44.726;37.760;2024-02-26T05:37:04;24.63;;;5.93;;
79009;SDS011;73031;44.726;37.760;2024-02-26T05:38:05;24.70;;;6.63;;
79009;SDS011;73031;44.726;37.760;2024-02-26T05:39:06;32.08;;;7.00;;
79009;SDS011;73031;44.726;37.760;2024-02-26T05:40:07;20.83;;;6.40;;
79009;SDS011;73031;44.726;37.760;2024-02-26T05:41:09;16.52;;;5.55;;
79009;SDS011;73031;44.726;37.760;2024-02-26T05:42:11;27.25;;;5.65;;
79009;SDS011;73031;44.726;37.760;2024-02-26T05:43:12;21.00;;;5.38;;
79009;SDS011;73031;44.726;37.760;2024-02-26T05:44:16;21.70;;;5.80;;
79009;SDS011;73031;44.726;37.760;2024-02-26T05:45:17;16.83;;;5.65;;
79009;SDS011;73031;44.726;37.760;2024-02-26T05:46:21;16.10;;;4.95;;
79009;SDS011;73031;44.726;37.760;2024-02-26T05:47:23;21.27;;;5.78;;
79009;SDS011;73031;44.726;37.760;2024-02-26T05:48:24;19.73;;;5.50;;
79009;SDS011;73031;44.726;37.760;2024-02-26T05:49:25;25.63;;;5.30;;
79009;SDS011;73031;44.726;37.760;2024-02-26T05:50:26;26.83;;;5.90;;
79009;SDS011;73031;44.726;37.760;2024-02-26T05:51:28;20.25;;;5.63;;
79009;SDS011;73031;44.726;37.760;2024-02-26T05:52:29;18.08;;;5.32;;
79009;SDS011;73031;44.726;37.760;2024-02-26T05:53:31;18.98;;;6.38;;
79009;SDS011;73031;44.726;37.760;2024-02-26T05:54:32;20.65;;;4.90;;
79009;SDS011;73031;44.726;37.760;2024-02-26T05:55:33;16.52;;;5.30;;
79009;SDS011;73031;44.726;37.760;2024-02-26T05:56:34;21.33;;;4.93;;
79009;SDS011;73031;44.726;37.760;2024-02-26T05:57:35;23.83;;;5.47;;
79009;SDS011;73031;44.726;37.760;2024-02-26T05:58:37;16.42;;;4.88;;
79009;SDS011;73031;44.726;37.760;2024-02-26T05:59:38;17.85;;;5.20;;